Accueil
METAR-TAF:

METAR-TAF

Aéroports :

Aéroport de Bruxelles. Zaventem

Bruxelles, Belgique

latitude: 50-54N, longitude: 004-32E, altitude: 55 m

Observation

Le bulletin a été fait il y a 27 minutes, à 18:50 UTC
Vent 15 kt de nord/nord-est
Température 4°C
Humidité 44%
Pression 1033 hPa
Visibilité 10 km ou plus
pas de nuages en-dessous de 1500 mètres et pas de cumulonimbus.

METAR: EBBR 291850Z 03015KT CAVOK 04/M07 Q1033 NOSIG

Heure: 21:17 (19:17 UTC)

Prévision

Le bulletin a été fait il y a 2 heures et 16 minutes, à 17:01 UTC
Prévision valable du 29 à 18 UTC au 30 à 24 UTC
Vent 18 kt de nord/nord-est avec des rafales jusqu'à 30 kt
Visibilité 10 km ou plus
Quelques nuages à une hauteur de 2500 ft
Evoluant progressivement
du 29 à 22 UTC au 29 à 24 UTC
Vent 6 kt de nord/nord-est

TAF: EBBR 291701Z 2918/3024 02018G30KT 9999 FEW025 BECMG 2922/2924 02006KT

Observations et prévisions météorologiques de plus de 4000 aéroports (messages METAR et TAF).

Les stations disponibles sont représentées par des disques jaunes et rouges sur la carte.

Passer la souris dessus pour voir le nom de la station.

Cliquer dessus pour voir les observations et prévisions météorologiques.

Pour changer de carte: cliquez sur les boutons verts avec une croix noire pour zoomer, sur le bouton vert avec un tiret pour effectuer un zoom arrière, ou sur les flèches vertes pour les cartes adjacentes.


METAR-TAF: